createdAt,value
2022-08-03T00:00:27.305Z,101054.94
2022-08-03T00:02:54.182Z,101058.69
2022-08-03T00:05:21.152Z,101075.59
2022-08-03T00:07:48.487Z,101080.78
2022-08-03T00:10:17.511Z,101095.03
2022-08-03T00:12:44.277Z,101102.94
2022-08-03T00:15:16.396Z,101117.13
2022-08-03T00:17:52.607Z,101124.06
2022-08-03T00:20:22.116Z,101138.53
2022-08-03T00:22:49.544Z,101149.16
2022-08-03T00:25:16.835Z,101155.59
2022-08-03T00:27:43.603Z,101155.72
2022-08-03T00:30:10.908Z,101159.72
2022-08-03T00:32:38.880Z,101167.16
2022-08-03T00:35:18.077Z,101167.16
2022-08-03T00:37:58.886Z,101168.63
2022-08-03T00:40:25.687Z,101177.19
2022-08-03T00:42:58.234Z,101174.31
2022-08-03T00:45:30.481Z,101173.91
2022-08-03T00:47:57.987Z,101175.66
2022-08-03T00:50:26.817Z,101176.84
2022-08-03T00:52:56.275Z,101181.22
2022-08-03T00:55:24.403Z,101176.31
2022-08-03T00:57:51.993Z,101169.22
2022-08-03T01:00:23.397Z,101174.81
2022-08-03T01:02:50.400Z,101166.06
2022-08-03T01:05:17.945Z,101156.50
2022-08-03T01:08:05.982Z,101167.25
2022-08-03T01:10:38.752Z,101173.88
2022-08-03T01:14:01.411Z,101159.13
2022-08-03T01:16:22.886Z,101164.31
2022-08-03T01:19:11.653Z,101164.50
2022-08-03T01:21:56.608Z,101164.50
2022-08-03T01:24:50.633Z,101168.25
2022-08-03T01:27:29.836Z,101173.31
2022-08-03T01:30:12.416Z,101173.63
2022-08-03T01:33:03.789Z,101171.16
2022-08-03T01:35:42.331Z,101172.31
2022-08-03T01:38:35.744Z,101175.66
2022-08-03T01:41:09.094Z,101179.41
2022-08-03T01:43:55.206Z,101180.59
2022-08-03T01:46:26.475Z,101173.63
2022-08-03T01:48:55.233Z,101180.72
2022-08-03T01:51:22.534Z,101178.69
2022-08-03T01:53:51.317Z,101175.53
2022-08-03T01:56:20.366Z,101166.22
2022-08-03T01:58:49.994Z,101172.44
2022-08-03T02:01:18.845Z,101176.78
2022-08-03T02:03:59.841Z,101162.31
2022-08-03T02:07:02.356Z,101157.66
2022-08-03T02:09:20.636Z,101162.19
2022-08-03T02:11:48.517Z,101160.66
2022-08-03T02:14:17.295Z,101168.66
2022-08-03T02:16:45.804Z,101169.56
2022-08-03T02:19:13.607Z,101174.47
2022-08-03T02:21:56.911Z,101175.66
2022-08-03T02:24:28.975Z,101170.41
2022-08-03T02:26:56.659Z,101166.38
2022-08-03T02:29:39.652Z,101174.94
2022-08-03T02:32:12.954Z,101169.44
2022-08-03T02:34:44.127Z,101163.19
2022-08-03T02:37:13.680Z,101166.22
2022-08-03T02:39:42.905Z,101158.09
2022-08-03T02:42:12.185Z,101157.50
2022-08-03T02:44:41.654Z,101149.78
2022-08-03T02:47:10.928Z,101156.28
2022-08-03T02:49:50.678Z,101164.72
2022-08-03T02:52:23.576Z,101155.69
2022-08-03T02:54:55.001Z,101167.41
2022-08-03T02:57:23.360Z,101166.75
2022-08-03T02:59:51.930Z,101165.25
2022-08-03T03:02:20.076Z,101166.69
2022-08-03T03:05:51.436Z,101155.34
2022-08-03T03:07:52.024Z,101166.59
2022-08-03T03:10:23.248Z,101164.13
2022-08-03T03:12:58.467Z,101159.94
2022-08-03T03:15:27.032Z,101164.03
2022-08-03T03:17:55.166Z,101174.91
2022-08-03T03:20:29.741Z,101172.13
2022-08-03T03:23:01.560Z,101182.47
2022-08-03T03:25:33.290Z,101176.53
2022-08-03T03:28:01.998Z,101181.31
2022-08-03T03:30:30.097Z,101180.72
2022-08-03T03:32:58.840Z,101184.50
2022-08-03T03:35:27.250Z,101175.53
2022-08-03T03:37:54.844Z,101176.41
2022-08-03T03:40:22.511Z,101175.09
2022-08-03T03:42:50.186Z,101169.03
2022-08-03T03:45:17.935Z,101163.53
2022-08-03T03:47:44.747Z,101155.88
2022-08-03T03:50:11.763Z,101150.38
2022-08-03T03:52:38.636Z,101149.66
2022-08-03T03:55:05.819Z,101153.25
2022-08-03T03:57:34.402Z,101141.78
2022-08-03T04:00:01.076Z,101135.56
2022-08-03T04:02:27.830Z,101138.00
2022-08-03T04:05:13.055Z,101145.22
2022-08-03T04:08:14.513Z,101142.34
2022-08-03T04:10:59.207Z,101142.59
2022-08-03T04:13:34.223Z,101142.84
2022-08-03T04:16:01.948Z,101135.00
2022-08-03T04:18:32.710Z,101135.28
2022-08-03T04:21:03.550Z,101134.66
2022-08-03T04:23:34.866Z,101132.59
2022-08-03T04:26:03.604Z,101126.06
2022-08-03T04:28:32.408Z,101132.78
2022-08-03T04:31:01.298Z,101136.78
2022-08-03T04:33:32.394Z,101137.25
2022-08-03T04:36:03.456Z,101135.16
2022-08-03T04:38:37.062Z,101136.22
2022-08-03T04:41:04.267Z,101145.38
2022-08-03T04:43:34.147Z,101163.59
2022-08-03T04:46:02.063Z,101173.59
2022-08-03T04:48:29.219Z,101189.31
2022-08-03T04:50:55.987Z,101200.88
2022-08-03T04:53:22.748Z,101209.41
2022-08-03T04:55:50.314Z,101219.56
2022-08-03T04:58:16.989Z,101220.91
2022-08-03T05:00:45.660Z,101239.25
2022-08-03T05:03:20.347Z,101245.34
2022-08-03T05:06:09.517Z,101253.31
2022-08-03T05:08:46.514Z,101258.19
2022-08-03T05:11:16.727Z,101265.88
2022-08-03T05:13:44.715Z,101279.50
2022-08-03T05:16:12.286Z,101278.13
2022-08-03T05:18:38.949Z,101280.44
2022-08-03T05:21:05.677Z,101290.56
2022-08-03T05:23:32.377Z,101290.97
2022-08-03T05:25:59.169Z,101300.47
2022-08-03T05:28:26.092Z,101297.97
2022-08-03T05:30:52.834Z,101298.13
2022-08-03T05:33:19.770Z,101298.34
2022-08-03T05:35:56.123Z,101288.91
2022-08-03T05:38:34.358Z,101289.56
2022-08-03T05:41:22.096Z,101288.22
2022-08-03T05:43:56.245Z,101304.34
2022-08-03T05:46:23.617Z,101305.78
2022-08-03T05:48:50.787Z,101307.84
2022-08-03T05:51:17.827Z,101312.88
2022-08-03T05:53:45.112Z,101317.22
2022-08-03T05:56:14.060Z,101323.59
2022-08-03T05:58:46.110Z,101325.88
2022-08-03T06:01:13.205Z,101335.75
2022-08-03T06:03:40.323Z,101329.50
2022-08-03T06:06:07.185Z,101325.56
2022-08-03T06:08:34.963Z,101333.03
2022-08-03T06:11:03.833Z,101330.97
2022-08-03T06:13:30.569Z,101333.03
2022-08-03T06:15:57.278Z,101345.47
2022-08-03T06:18:25.495Z,101339.44
2022-08-03T06:20:53.122Z,101348.94
2022-08-03T06:23:20.035Z,101342.19
2022-08-03T06:25:47.652Z,101345.97
2022-08-03T06:28:42.393Z,101352.53
2022-08-03T06:31:02.233Z,101349.19
2022-08-03T06:34:30.360Z,101346.41
2022-08-03T06:36:15.928Z,101333.72
2022-08-03T06:38:42.631Z,101303.25
2022-08-03T06:41:09.392Z,101304.84
2022-08-03T06:43:38.049Z,101259.19
2022-08-03T06:46:24.547Z,101259.13
2022-08-03T06:48:53.227Z,101214.84
2022-08-03T06:51:20.141Z,101180.97
2022-08-03T06:53:46.827Z,101232.31
2022-08-03T06:56:13.682Z,101227.75
2022-08-03T06:58:40.725Z,101214.22
2022-08-03T07:01:07.577Z,101246.84
2022-08-03T07:03:34.312Z,101227.38
2022-08-03T07:06:02.504Z,101264.44
2022-08-03T07:08:33.600Z,101242.09
2022-08-03T07:11:01.631Z,101242.34
2022-08-03T07:13:28.374Z,101232.53
2022-08-03T07:15:56.400Z,101250.94
2022-08-03T07:18:28.303Z,101270.19
2022-08-03T07:20:57.841Z,101318.63
2022-08-03T07:23:25.678Z,101311.56
2022-08-03T07:25:52.861Z,101318.44
2022-08-03T07:28:20.367Z,101339.94
2022-08-03T07:30:47.364Z,101349.72
2022-08-03T07:33:14.515Z,101363.81
2022-08-03T07:35:41.281Z,101373.25
2022-08-03T07:38:08.044Z,101363.28
2022-08-03T07:40:34.826Z,101370.28
2022-08-03T07:43:03.366Z,101373.63
2022-08-03T07:45:31.421Z,101344.84
2022-08-03T07:47:58.259Z,101338.84
2022-08-03T07:50:25.547Z,101342.91
2022-08-03T07:52:53.640Z,101345.50
2022-08-03T07:55:25.527Z,101332.84
2022-08-03T07:58:12.168Z,101318.28
2022-08-03T08:00:38.933Z,101303.75
2022-08-03T08:03:05.759Z,101298.38
2022-08-03T08:05:32.803Z,101289.16
2022-08-03T08:08:00.993Z,101312.91
2022-08-03T08:10:31.082Z,101277.06
2022-08-03T08:12:57.842Z,101263.97
2022-08-03T08:15:25.182Z,101260.94
2022-08-03T08:17:54.847Z,101266.28
2022-08-03T08:20:31.949Z,101245.72
2022-08-03T08:23:37.663Z,101241.34
2022-08-03T08:25:53.871Z,101255.69
2022-08-03T08:28:32.353Z,101260.75
2022-08-03T08:31:00.557Z,101272.19
2022-08-03T08:33:37.224Z,101306.25
2022-08-03T08:36:15.571Z,101261.59
2022-08-03T08:38:44.912Z,101288.63
2022-08-03T08:41:13.795Z,101304.78
2022-08-03T08:43:41.587Z,101292.16
2022-08-03T08:46:12.397Z,101314.53
2022-08-03T08:48:42.361Z,101278.78
2022-08-03T08:51:11.472Z,101284.72
2022-08-03T08:53:41.733Z,101293.97
2022-08-03T08:56:15.390Z,101291.31
2022-08-03T08:58:49.321Z,101312.84
2022-08-03T09:01:20.138Z,101336.22
2022-08-03T09:03:48.203Z,101315.31
2022-08-03T09:06:15.375Z,101301.47
2022-08-03T09:08:42.427Z,101278.81
2022-08-03T09:11:09.538Z,101316.28
2022-08-03T09:13:39.993Z,101298.97
2022-08-03T09:16:18.966Z,101284.88
2022-08-03T09:18:50.073Z,101282.75
2022-08-03T09:21:33.187Z,101292.94
2022-08-03T09:24:04.186Z,101300.47
2022-08-03T09:26:34.296Z,101258.94
2022-08-03T09:29:14.511Z,101271.00
2022-08-03T09:31:45.335Z,101271.81
2022-08-03T09:34:18.108Z,101289.94
2022-08-03T09:36:47.289Z,101259.56
2022-08-03T09:39:16.798Z,101281.63
2022-08-03T09:41:46.094Z,101299.25
2022-08-03T09:44:16.185Z,101287.41
2022-08-03T09:46:57.034Z,101289.16
2022-08-03T09:49:25.183Z,101317.81
2022-08-03T09:52:29.541Z,101318.31
2022-08-03T09:54:41.305Z,101287.28
2022-08-03T09:57:08.472Z,101301.19
2022-08-03T09:59:35.708Z,101252.91
2022-08-03T10:02:06.117Z,101233.94
2022-08-03T10:04:32.968Z,101242.22
2022-08-03T10:07:10.961Z,101273.19
2022-08-03T10:09:38.450Z,101277.69
2022-08-03T10:12:10.905Z,101283.72
2022-08-03T10:14:42.404Z,101287.84
2022-08-03T10:17:12.741Z,101281.38
2022-08-03T10:19:41.856Z,101238.16
2022-08-03T10:22:16.903Z,101263.13
2022-08-03T10:24:53.382Z,101250.09
2022-08-03T10:27:22.826Z,101235.91
2022-08-03T10:29:54.558Z,101240.56
2022-08-03T10:32:29.332Z,101227.28
2022-08-03T10:35:19.663Z,101230.41
2022-08-03T10:37:58.781Z,101237.09
2022-08-03T10:40:49.776Z,101240.66
2022-08-03T10:43:26.140Z,101247.63
2022-08-03T10:45:53.058Z,101212.31
2022-08-03T10:48:20.851Z,101222.94
2022-08-03T10:50:50.206Z,101222.75
2022-08-03T10:53:20.005Z,101238.31
2022-08-03T10:56:05.594Z,101231.72
2022-08-03T10:58:53.318Z,101214.84
2022-08-03T11:01:59.986Z,101225.31
2022-08-03T11:04:29.931Z,101240.22
2022-08-03T11:07:15.950Z,101300.28
2022-08-03T11:09:45.032Z,101289.72
2022-08-03T11:12:31.406Z,101297.66
2022-08-03T11:15:03.489Z,101323.59
2022-08-03T11:17:30.774Z,101329.72
2022-08-03T11:19:58.622Z,101342.91
2022-08-03T11:22:28.653Z,101348.69
2022-08-03T11:24:56.431Z,101342.19
2022-08-03T11:27:33.855Z,101320.91
2022-08-03T11:30:09.868Z,101309.06
2022-08-03T11:32:49.144Z,101288.44
2022-08-03T11:35:26.175Z,101307.38
2022-08-03T11:38:05.009Z,101268.75
2022-08-03T11:40:51.844Z,101276.94
2022-08-03T11:43:31.639Z,101276.22
2022-08-03T11:45:59.922Z,101277.31
2022-08-03T11:48:37.667Z,101295.09
2022-08-03T11:51:19.187Z,101266.06
2022-08-03T11:53:47.871Z,101293.78
2022-08-03T11:56:14.865Z,101296.72
2022-08-03T11:59:01.447Z,101244.28
2022-08-03T12:01:41.725Z,101243.34
2022-08-03T12:04:10.481Z,101240.38
2022-08-03T12:06:55.519Z,101267.38
2022-08-03T12:09:22.704Z,101292.97
2022-08-03T12:11:59.348Z,101313.66
2022-08-03T12:14:49.466Z,101270.31
2022-08-03T12:17:15.201Z,101234.44
2022-08-03T12:19:43.384Z,101248.13
2022-08-03T12:22:10.762Z,101223.06
2022-08-03T12:24:46.750Z,101208.31
2022-08-03T12:27:23.285Z,101205.25
2022-08-03T12:29:58.359Z,101234.66
2022-08-03T12:32:26.955Z,101203.13
2022-08-03T12:34:54.314Z,101204.34
2022-08-03T12:37:25.940Z,101218.59
2022-08-03T12:40:02.790Z,101211.75
2022-08-03T12:42:37.819Z,101199.44
2022-08-03T12:45:26.516Z,101241.19
2022-08-03T12:48:01.573Z,101205.59
2022-08-03T12:50:34.116Z,101229.28
2022-08-03T12:53:03.289Z,101224.28
2022-08-03T12:55:40.193Z,101244.50
2022-08-03T12:58:35.495Z,101245.59
2022-08-03T13:01:09.772Z,101287.94
2022-08-03T13:03:50.520Z,101268.78
2022-08-03T13:06:26.563Z,101276.88
2022-08-03T13:09:05.566Z,101288.28
2022-08-03T13:11:58.079Z,101298.94
2022-08-03T13:14:20.567Z,101290.59
2022-08-03T13:16:49.234Z,101311.25
2022-08-03T13:19:16.813Z,101313.84
2022-08-03T13:22:01.851Z,101325.84
2022-08-03T13:24:32.636Z,101343.75
2022-08-03T13:27:00.812Z,101341.34
2022-08-03T13:29:47.604Z,101327.78
2022-08-03T13:32:14.880Z,101307.81
2022-08-03T13:34:42.403Z,101319.13
2022-08-03T13:37:10.215Z,101314.34
2022-08-03T13:39:57.244Z,101306.59
2022-08-03T13:42:25.674Z,101301.69
2022-08-03T13:44:52.957Z,101306.00
2022-08-03T13:47:20.670Z,101348.41
2022-08-03T13:49:59.631Z,101311.09
2022-08-03T13:52:28.344Z,101337.25
2022-08-03T13:54:55.373Z,101342.63
2022-08-03T13:58:03.456Z,101321.47
2022-08-03T14:00:10.607Z,101311.59
2022-08-03T14:02:38.169Z,101343.03
2022-08-03T14:05:05.953Z,101333.38
2022-08-03T14:07:33.913Z,101355.31
2022-08-03T14:10:02.102Z,101339.69
2022-08-03T14:12:29.970Z,101316.44
2022-08-03T14:15:01.164Z,101306.88
2022-08-03T14:17:42.344Z,101345.88
2022-08-03T14:20:38.897Z,101348.03
2022-08-03T14:23:04.195Z,101336.03
2022-08-03T14:25:43.623Z,101359.25
2022-08-03T14:28:17.060Z,101357.72
2022-08-03T14:30:44.215Z,101353.34
2022-08-03T14:33:11.835Z,101350.88
2022-08-03T14:35:39.686Z,101334.47
2022-08-03T14:38:07.525Z,101315.13
2022-08-03T14:40:35.458Z,101311.22
2022-08-03T14:43:03.038Z,101313.41
2022-08-03T14:45:30.321Z,101300.78
2022-08-03T14:50:33.697Z,101312.88
2022-08-03T14:50:51.403Z,101321.78
2022-08-03T14:53:19.694Z,101340.09
2022-08-03T14:55:50.264Z,101354.09
2022-08-03T14:58:19.598Z,101360.06
2022-08-03T15:00:47.853Z,101325.00
2022-08-03T15:03:17.049Z,101356.63
2022-08-03T15:05:44.853Z,101343.72
2022-08-03T15:08:12.577Z,101365.88
2022-08-03T15:10:43.709Z,101359.63
2022-08-03T15:13:13.660Z,101352.72
2022-08-03T15:15:41.021Z,101349.56
2022-08-03T15:18:08.616Z,101353.63
2022-08-03T15:20:51.098Z,101357.72
2022-08-03T15:23:19.418Z,101366.34
2022-08-03T15:26:27.839Z,101356.84
2022-08-03T15:28:37.314Z,101361.16
2022-08-03T15:31:05.663Z,101351.88
2022-08-03T15:33:32.850Z,101379.25
2022-08-03T15:36:02.576Z,101355.13
2022-08-03T15:38:29.879Z,101327.81
2022-08-03T15:40:59.172Z,101353.63
2022-08-03T15:43:27.825Z,101335.97
2022-08-03T15:46:19.514Z,101345.00
2022-08-03T15:48:42.926Z,101334.94
2022-08-03T15:51:10.566Z,101320.28
2022-08-03T15:53:38.773Z,101331.03
2022-08-03T15:56:13.323Z,101335.34
2022-08-03T15:59:03.690Z,101345.91
2022-08-03T16:01:32.039Z,101333.88
2022-08-03T16:03:59.083Z,101331.72
2022-08-03T16:06:29.624Z,101332.59
2022-08-03T16:09:04.545Z,101328.44
2022-08-03T16:11:32.247Z,101337.47
2022-08-03T16:14:05.552Z,101342.19
2022-08-03T16:16:47.244Z,101341.97
2022-08-03T16:19:14.252Z,101354.47
2022-08-03T16:21:48.436Z,101363.69
2022-08-03T16:24:17.479Z,101360.47
2022-08-03T16:26:50.719Z,101363.25
2022-08-03T16:29:22.616Z,101359.78
2022-08-03T16:31:50.904Z,101361.66
2022-08-03T16:34:19.038Z,101352.25
2022-08-03T16:36:46.151Z,101355.94
2022-08-03T16:39:13.836Z,101339.16
2022-08-03T16:41:53.665Z,101351.19
2022-08-03T16:44:32.245Z,101334.63
2022-08-03T16:46:59.816Z,101337.69
2022-08-03T16:49:54.467Z,101348.88
2022-08-03T16:52:16.511Z,101340.69
2022-08-03T16:54:53.276Z,101327.19
2022-08-03T16:57:58.142Z,101313.66
2022-08-03T17:00:11.492Z,101317.72
2022-08-03T17:02:48.019Z,101306.50
2022-08-03T17:05:16.411Z,101320.47
2022-08-03T17:07:50.771Z,101344.56
2022-08-03T17:10:27.336Z,101332.53
2022-08-03T17:12:55.423Z,101317.25
2022-08-03T17:16:01.964Z,101337.69
2022-08-03T17:18:18.108Z,101338.75
2022-08-03T17:20:50.948Z,101332.31
2022-08-03T17:23:35.914Z,101327.38
2022-08-03T17:26:10.576Z,101349.03
2022-08-03T17:28:57.230Z,101351.84
2022-08-03T17:31:31.685Z,101355.41
2022-08-03T17:34:04.564Z,101364.44
2022-08-03T17:37:02.683Z,101367.56
2022-08-03T17:39:48.354Z,101373.16
2022-08-03T17:42:30.422Z,101376.22
2022-08-03T17:45:02.393Z,101377.03
2022-08-03T17:47:56.966Z,101368.22
2022-08-03T17:50:28.821Z,101374.41
2022-08-03T17:53:15.107Z,101377.81
2022-08-03T17:56:04.872Z,101380.59
2022-08-03T17:59:08.591Z,101379.59
2022-08-03T18:02:29.771Z,101388.38
2022-08-03T18:05:16.313Z,101388.91
2022-08-03T18:08:03.584Z,101397.91
2022-08-03T18:10:36.730Z,101395.94
2022-08-03T18:13:24.063Z,101410.44
2022-08-03T18:16:02.634Z,101414.66
2022-08-03T18:18:43.910Z,101412.25
2022-08-03T18:21:17.019Z,101415.75
2022-08-03T18:23:50.099Z,101417.75
2022-08-03T18:26:18.998Z,101434.53
2022-08-03T18:28:48.863Z,101426.69
2022-08-03T18:32:00.219Z,101429.81
2022-08-03T18:34:19.855Z,101424.50
2022-08-03T18:36:56.452Z,101429.94
2022-08-03T18:39:23.865Z,101437.91
2022-08-03T18:41:52.513Z,101438.63
2022-08-03T18:44:52.497Z,101441.69
2022-08-03T18:47:51.542Z,101447.72
2022-08-03T18:50:28.253Z,101445.41
2022-08-03T18:54:02.494Z,101454.13
2022-08-03T18:56:45.099Z,101465.03
2022-08-03T18:59:30.892Z,101471.31
2022-08-03T19:02:09.226Z,101457.78
2022-08-03T19:04:47.338Z,101458.56
2022-08-03T19:07:35.826Z,101458.66
2022-08-03T19:16:08.673Z,101457.81
2022-08-03T19:18:44.771Z,101455.63
2022-08-03T19:21:16.892Z,101451.28
2022-08-03T19:23:49.276Z,101446.47
2022-08-03T19:26:30.220Z,101445.47
2022-08-03T19:29:03.162Z,101450.94
2022-08-03T19:31:35.016Z,101442.34
2022-08-03T19:34:03.988Z,101433.56
2022-08-03T19:36:35.895Z,101441.03
2022-08-03T19:39:11.108Z,101435.53
2022-08-03T19:41:42.470Z,101426.69
2022-08-03T19:44:19.926Z,101424.50
2022-08-03T19:47:03.019Z,101412.22
2022-08-03T19:50:05.977Z,101403.63
2022-08-03T19:52:31.342Z,101405.34
2022-08-03T20:00:58.788Z,101372.28
2022-08-03T20:06:08.500Z,101365.72
2022-08-03T20:11:45.003Z,101351.88
2022-08-03T20:14:27.040Z,101334.75
2022-08-03T20:16:59.639Z,101328.53
2022-08-03T20:19:36.611Z,101329.72
2022-08-03T20:22:14.496Z,101328.69
2022-08-03T20:24:52.800Z,101316.75
2022-08-03T20:28:05.883Z,101308.78
2022-08-03T20:33:48.487Z,101302.03
2022-08-03T20:36:23.610Z,101289.06
2022-08-03T20:39:07.718Z,101292.56
2022-08-03T20:41:44.874Z,101297.19
2022-08-03T20:47:13.705Z,101293.59
2022-08-03T20:49:56.353Z,101284.75
2022-08-03T20:52:49.384Z,101285.44
2022-08-03T21:01:27.491Z,101287.84
2022-08-03T21:10:10.122Z,101280.91
2022-08-03T21:13:07.725Z,101287.03
2022-08-03T21:13:15.322Z,101272.44
2022-08-03T21:16:12.811Z,101277.94
2022-08-03T21:18:56.114Z,101287.97
2022-08-03T21:21:38.195Z,101274.41
2022-08-03T21:24:16.666Z,101263.56
2022-08-03T21:26:48.287Z,101258.00
2022-08-03T21:29:16.969Z,101261.25
2022-08-03T21:31:44.662Z,101241.19
2022-08-03T21:34:12.890Z,101227.72
2022-08-03T21:36:40.952Z,101230.78
2022-08-03T21:39:10.475Z,101221.63
2022-08-03T21:41:40.534Z,101210.13
2022-08-03T21:44:08.694Z,101204.41
2022-08-03T21:46:39.595Z,101209.75
2022-08-03T21:50:04.203Z,101207.63
2022-08-03T21:52:05.151Z,101204.16
2022-08-03T21:54:41.207Z,101195.94
2022-08-03T21:57:20.748Z,101180.78
2022-08-03T22:00:06.935Z,101184.16
2022-08-03T22:02:35.764Z,101169.50
2022-08-03T22:05:04.968Z,101173.44
2022-08-03T22:07:32.962Z,101127.53
2022-08-03T22:10:02.840Z,101117.72
2022-08-03T22:12:32.684Z,101114.97
2022-08-03T22:15:02.435Z,101119.97
2022-08-03T22:17:55.810Z,101125.28
2022-08-03T22:20:20.776Z,101121.44
2022-08-03T22:22:56.095Z,101105.72
2022-08-03T22:25:29.704Z,101100.66
2022-08-03T22:28:00.465Z,101094.88
2022-08-03T22:30:28.763Z,101087.81
2022-08-03T22:32:57.827Z,101078.50
2022-08-03T22:35:27.421Z,101090.25
2022-08-03T22:37:58.392Z,101094.34
2022-08-03T22:40:28.081Z,101088.50
2022-08-03T22:42:57.884Z,101085.66
2022-08-03T22:46:07.817Z,101081.22
2022-08-03T22:48:17.971Z,101074.66
2022-08-03T22:50:46.511Z,101071.00
2022-08-03T22:53:22.414Z,101064.16
2022-08-03T22:55:51.727Z,101064.75
2022-08-03T22:58:21.117Z,101058.13
2022-08-03T23:00:56.919Z,101054.63
2022-08-03T23:03:59.943Z,101057.75
2022-08-03T23:06:17.112Z,101051.41
2022-08-03T23:08:47.674Z,101055.19
2022-08-03T23:11:18.300Z,101046.09
2022-08-03T23:13:52.650Z,101041.72
2022-08-03T23:16:28.897Z,101035.25
2022-08-03T23:18:59.850Z,101036.59
2022-08-03T23:21:53.072Z,101023.66
2022-08-03T23:24:30.360Z,101014.16
2022-08-03T23:27:06.985Z,101009.56
2022-08-03T23:29:36.722Z,101007.34
2022-08-03T23:32:05.974Z,101013.88
2022-08-03T23:34:53.141Z,101015.91
2022-08-03T23:37:22.240Z,101015.59
2022-08-03T23:39:50.552Z,101018.53
2022-08-03T23:42:20.435Z,101017.84
2022-08-03T23:44:53.636Z,101007.84
2022-08-03T23:47:21.964Z,101014.09
2022-08-03T23:49:50.350Z,101005.69
2022-08-03T23:52:34.489Z,101006.16
2022-08-03T23:55:18.789Z,100994.75
2022-08-03T23:58:17.299Z,101007.00
